createdAt,value
2019-06-27T00:01:32.699Z,16.50
2019-06-27T00:04:01.836Z,16.25
2019-06-27T00:06:31.576Z,12.40
2019-06-27T00:09:05.118Z,13.15
2019-06-27T00:11:34.918Z,14.63
2019-06-27T00:14:04.695Z,15.17
2019-06-27T00:16:34.169Z,13.70
2019-06-27T00:19:03.884Z,12.73
2019-06-27T00:21:33.625Z,13.70
2019-06-27T00:24:02.785Z,13.08
2019-06-27T00:26:38.153Z,12.37
2019-06-27T00:29:07.445Z,14.47
2019-06-27T00:31:36.973Z,12.90
2019-06-27T00:34:06.805Z,12.15
2019-06-27T00:36:35.975Z,12.25
2019-06-27T00:39:07.244Z,12.82
2019-06-27T00:41:36.413Z,11.73
2019-06-27T00:44:05.899Z,12.60
2019-06-27T00:46:35.721Z,12.55
2019-06-27T00:49:05.507Z,11.53
2019-06-27T00:51:35.087Z,11.88
2019-06-27T00:54:04.424Z,11.97
2019-06-27T00:56:34.162Z,12.35
2019-06-27T00:59:03.441Z,11.48
2019-06-27T01:01:32.591Z,14.78
2019-06-27T01:04:02.028Z,10.35
2019-06-27T01:06:31.835Z,13.40
2019-06-27T01:09:02.099Z,12.37
2019-06-27T01:11:31.427Z,10.90
2019-06-27T01:14:00.941Z,16.80
2019-06-27T01:16:30.979Z,11.55
2019-06-27T01:19:00.533Z,12.47
2019-06-27T01:21:30.153Z,13.03
2019-06-27T01:23:59.297Z,12.80
2019-06-27T01:26:28.767Z,12.65
2019-06-27T01:28:57.924Z,12.00
2019-06-27T01:31:27.139Z,10.95
2019-06-27T01:33:56.622Z,12.60
2019-06-27T01:36:25.873Z,11.80
2019-06-27T01:38:55.323Z,10.82
2019-06-27T01:41:25.033Z,13.28
2019-06-27T01:43:54.919Z,13.48
2019-06-27T01:46:24.071Z,14.03
2019-06-27T01:48:53.525Z,11.93
2019-06-27T01:51:24.881Z,15.68
2019-06-27T01:53:54.505Z,12.03
2019-06-27T01:56:24.820Z,13.93
2019-06-27T01:58:55.226Z,14.50
2019-06-27T02:01:24.327Z,13.27
2019-06-27T02:03:54.071Z,15.78
2019-06-27T02:06:23.459Z,10.63
2019-06-27T02:08:52.907Z,15.98
2019-06-27T02:11:22.059Z,14.38
2019-06-27T02:13:51.344Z,14.95
2019-06-27T02:16:21.404Z,12.53
2019-06-27T02:18:50.884Z,16.73
2019-06-27T02:21:20.366Z,14.35
2019-06-27T02:23:49.531Z,13.53
2019-06-27T02:26:18.888Z,11.60
2019-06-27T02:28:48.230Z,12.05
2019-06-27T02:31:17.791Z,12.98
2019-06-27T02:33:47.277Z,12.10
2019-06-27T02:36:16.518Z,13.90
2019-06-27T02:38:46.317Z,11.43
2019-06-27T02:41:16.446Z,13.18
2019-06-27T02:43:46.030Z,14.55
2019-06-27T02:46:15.463Z,12.25
2019-06-27T02:48:44.695Z,13.87
2019-06-27T02:51:14.221Z,10.20
2019-06-27T02:53:43.688Z,12.25
2019-06-27T02:56:13.438Z,14.60
2019-06-27T02:58:42.667Z,11.78
2019-06-27T03:01:11.947Z,15.70
2019-06-27T03:03:41.941Z,17.15
2019-06-27T03:06:11.572Z,13.30
2019-06-27T03:08:41.095Z,13.40
2019-06-27T03:11:12.000Z,15.05
2019-06-27T03:13:41.500Z,15.45
2019-06-27T03:16:11.858Z,14.18
2019-06-27T03:18:42.205Z,13.50
2019-06-27T03:21:11.665Z,15.97
2019-06-27T03:23:41.564Z,15.00
2019-06-27T03:26:10.831Z,15.13
2019-06-27T03:28:51.892Z,17.90
2019-06-27T03:31:11.877Z,17.27
2019-06-27T03:33:42.049Z,13.00
2019-06-27T03:36:11.657Z,14.83
2019-06-27T03:38:41.364Z,16.15
2019-06-27T03:41:10.854Z,13.93
2019-06-27T03:43:40.379Z,13.10
2019-06-27T03:46:10.129Z,17.05
2019-06-27T03:48:39.602Z,15.05
2019-06-27T03:51:09.591Z,15.58
2019-06-27T03:53:38.763Z,15.00
2019-06-27T03:56:08.149Z,16.60
2019-06-27T03:58:40.181Z,13.53
2019-06-27T04:01:09.358Z,14.98
2019-06-27T04:03:42.768Z,15.10
2019-06-27T04:06:10.273Z,12.50
2019-06-27T04:08:39.409Z,14.45
2019-06-27T04:11:09.079Z,14.40
2019-06-27T04:13:38.847Z,14.93
2019-06-27T04:16:09.090Z,13.62
2019-06-27T04:18:38.676Z,14.23
2019-06-27T04:21:08.074Z,13.50
2019-06-27T04:23:37.245Z,14.93
2019-06-27T04:26:06.999Z,13.70
2019-06-27T04:28:37.110Z,13.68
2019-06-27T04:31:07.066Z,13.60
2019-06-27T04:33:36.298Z,15.28
2019-06-27T04:36:05.830Z,17.30
2019-06-27T04:38:35.299Z,12.78
2019-06-27T04:41:04.972Z,13.77
2019-06-27T04:43:35.274Z,15.08
2019-06-27T04:46:04.865Z,18.25
2019-06-27T04:48:34.681Z,17.03
2019-06-27T04:51:06.876Z,16.65
2019-06-27T04:53:36.428Z,12.25
2019-06-27T04:56:06.096Z,14.80
2019-06-27T04:58:36.961Z,14.55
2019-06-27T05:01:06.923Z,14.90
2019-06-27T05:03:36.417Z,11.63
2019-06-27T05:06:06.525Z,16.27
2019-06-27T05:08:37.122Z,12.43
2019-06-27T05:11:06.897Z,14.23
2019-06-27T05:13:38.096Z,14.90
2019-06-27T05:16:07.670Z,15.75
2019-06-27T05:18:37.029Z,13.72
2019-06-27T05:21:06.657Z,18.48
2019-06-27T05:23:36.263Z,16.65
2019-06-27T05:26:06.893Z,19.10
2019-06-27T05:28:38.093Z,16.05
2019-06-27T05:31:08.319Z,14.23
2019-06-27T05:33:39.778Z,15.13
2019-06-27T05:36:12.025Z,13.80
2019-06-27T05:38:44.458Z,16.00
2019-06-27T05:41:14.697Z,13.33
2019-06-27T05:43:44.459Z,14.63
2019-06-27T05:46:18.148Z,15.10
2019-06-27T05:48:48.110Z,14.03
2019-06-27T05:51:17.984Z,12.00
2019-06-27T05:53:47.978Z,12.05
2019-06-27T05:56:20.006Z,16.63
2019-06-27T05:58:52.987Z,11.20
2019-06-27T06:01:22.860Z,14.33
2019-06-27T06:03:53.278Z,12.95
2019-06-27T06:06:32.537Z,13.22
2019-06-27T06:09:02.272Z,13.53
2019-06-27T06:11:32.038Z,14.33
2019-06-27T06:14:02.588Z,17.60
2019-06-27T06:16:34.925Z,14.23
2019-06-27T06:19:04.811Z,15.60
2019-06-27T06:21:34.772Z,14.30
2019-06-27T06:24:04.365Z,12.93
2019-06-27T06:26:34.112Z,18.70
2019-06-27T06:29:03.557Z,15.80
2019-06-27T06:31:33.623Z,14.68
2019-06-27T06:34:03.149Z,13.60
2019-06-27T06:36:32.934Z,15.45
2019-06-27T06:39:02.751Z,12.03
2019-06-27T06:41:32.427Z,14.68
2019-06-27T06:44:01.653Z,16.10
2019-06-27T06:46:32.243Z,16.20
2019-06-27T06:49:01.994Z,16.32
2019-06-27T06:51:31.792Z,17.30
2019-06-27T06:54:01.816Z,14.07
2019-06-27T06:56:32.696Z,16.40
2019-06-27T06:59:02.510Z,16.27
2019-06-27T07:01:32.152Z,16.45
2019-06-27T07:04:01.513Z,15.28
2019-06-27T07:06:31.988Z,15.53
2019-06-27T07:09:02.425Z,14.83
2019-06-27T07:11:33.094Z,17.23
2019-06-27T07:14:02.741Z,14.23
2019-06-27T07:16:31.974Z,15.72
2019-06-27T07:19:01.933Z,13.48
2019-06-27T07:21:32.316Z,14.33
2019-06-27T07:24:03.083Z,16.07
2019-06-27T07:26:32.740Z,14.20
2019-06-27T07:29:05.030Z,12.45
2019-06-27T07:31:34.833Z,14.35
2019-06-27T07:34:04.335Z,17.82
2019-06-27T07:36:33.848Z,14.57
2019-06-27T07:39:04.632Z,14.78
2019-06-27T07:41:34.419Z,15.53
2019-06-27T07:44:04.041Z,19.67
2019-06-27T07:46:34.147Z,14.75
2019-06-27T07:49:05.178Z,14.30
2019-06-27T07:51:35.105Z,11.83
2019-06-27T07:54:04.624Z,13.30
2019-06-27T07:56:37.365Z,15.07
2019-06-27T07:59:07.150Z,14.45
2019-06-27T08:01:37.053Z,14.85
2019-06-27T08:04:07.543Z,14.93
2019-06-27T08:06:38.728Z,14.95
2019-06-27T08:09:07.903Z,15.58
2019-06-27T08:11:39.694Z,15.83
2019-06-27T08:14:09.500Z,16.87
2019-06-27T08:16:38.861Z,12.55
2019-06-27T08:19:08.334Z,15.50
2019-06-27T08:21:37.553Z,12.73
2019-06-27T08:24:07.127Z,12.80
2019-06-27T08:26:37.047Z,13.95
2019-06-27T08:29:06.560Z,14.15
2019-06-27T08:31:50.574Z,15.38
2019-06-27T08:34:09.247Z,15.10
2019-06-27T08:36:40.960Z,14.45
2019-06-27T08:39:10.638Z,11.20
2019-06-27T08:41:40.429Z,12.03
2019-06-27T08:44:10.054Z,14.90
2019-06-27T08:46:41.419Z,14.00
2019-06-27T08:49:11.431Z,14.43
2019-06-27T08:51:41.139Z,18.42
2019-06-27T08:54:11.550Z,12.07
2019-06-27T08:56:41.113Z,14.68
2019-06-27T08:59:11.834Z,12.85
2019-06-27T09:01:41.466Z,13.00
2019-06-27T09:04:11.590Z,12.88
2019-06-27T09:06:41.012Z,13.90
2019-06-27T09:09:10.829Z,11.80
2019-06-27T09:11:42.572Z,11.70
2019-06-27T09:14:12.864Z,11.48
2019-06-27T09:16:48.394Z,13.50
2019-06-27T09:19:17.131Z,13.38
2019-06-27T09:21:46.361Z,11.27
2019-06-27T09:24:16.683Z,13.78
2019-06-27T09:26:46.816Z,11.97
2019-06-27T09:29:18.659Z,12.50
2019-06-27T09:31:48.304Z,11.65
2019-06-27T09:34:21.116Z,12.23
2019-06-27T09:36:50.604Z,10.45
2019-06-27T09:39:20.250Z,11.95
2019-06-27T09:41:49.672Z,11.88
2019-06-27T09:44:19.235Z,11.20
2019-06-27T09:46:48.876Z,10.90
2019-06-27T09:49:20.728Z,12.33
2019-06-27T09:51:50.553Z,9.85
2019-06-27T09:54:20.123Z,12.00
2019-06-27T09:56:50.033Z,10.18
2019-06-27T09:59:19.615Z,11.78
2019-06-27T10:01:49.043Z,10.68
2019-06-27T10:04:18.576Z,13.40
2019-06-27T10:06:48.197Z,12.13
2019-06-27T10:09:17.776Z,15.58
2019-06-27T10:11:47.247Z,11.78
2019-06-27T10:14:17.081Z,11.83
2019-06-27T10:16:47.583Z,11.10
2019-06-27T10:19:20.755Z,11.33
2019-06-27T10:21:50.203Z,13.43
2019-06-27T10:24:19.495Z,13.03
2019-06-27T10:26:50.035Z,13.33
2019-06-27T10:29:23.014Z,13.53
2019-06-27T10:31:52.708Z,12.75
2019-06-27T10:34:22.211Z,12.85
2019-06-27T10:36:52.267Z,14.25
2019-06-27T10:39:21.535Z,15.13
2019-06-27T10:41:51.752Z,15.98
2019-06-27T10:44:21.665Z,14.87
2019-06-27T10:46:51.363Z,15.83
2019-06-27T10:49:21.309Z,15.68
2019-06-27T10:51:52.889Z,15.75
2019-06-27T10:54:22.560Z,16.42
2019-06-27T10:56:52.883Z,15.70
2019-06-27T10:59:25.089Z,16.97
2019-06-27T11:01:55.994Z,16.73
2019-06-27T11:04:29.826Z,15.85
2019-06-27T11:06:59.716Z,16.30
2019-06-27T11:09:30.929Z,14.13
2019-06-27T11:12:00.394Z,15.20
2019-06-27T11:14:30.637Z,15.63
2019-06-27T11:17:00.731Z,15.40
2019-06-27T11:19:31.076Z,15.55
2019-06-27T11:22:00.479Z,15.18
2019-06-27T11:24:30.416Z,17.62
2019-06-27T11:26:59.698Z,15.47
2019-06-27T11:29:30.322Z,13.65
2019-06-27T11:31:59.554Z,15.53
2019-06-27T11:34:29.711Z,15.57
2019-06-27T11:37:02.644Z,14.73
2019-06-27T11:39:32.612Z,15.50
2019-06-27T11:42:05.292Z,15.80
2019-06-27T11:44:54.454Z,15.93
2019-06-27T11:47:34.434Z,15.13
2019-06-27T11:50:22.068Z,15.55
2019-06-27T11:52:52.151Z,15.23
2019-06-27T11:55:25.593Z,16.35
2019-06-27T11:58:07.672Z,15.93
2019-06-27T12:00:41.044Z,16.27
2019-06-27T12:03:18.826Z,16.90
2019-06-27T12:05:48.359Z,15.78
2019-06-27T12:08:21.235Z,16.40
2019-06-27T12:10:55.488Z,16.55
2019-06-27T12:13:25.026Z,16.17
2019-06-27T12:15:54.552Z,16.65
2019-06-27T12:18:33.298Z,16.45
2019-06-27T12:21:06.176Z,16.95
2019-06-27T12:23:39.590Z,16.48
2019-06-27T12:26:10.126Z,16.73
2019-06-27T12:28:40.084Z,15.28
2019-06-27T12:31:20.615Z,15.70
2019-06-27T12:34:06.772Z,15.88
2019-06-27T12:36:28.083Z,16.60
2019-06-27T12:38:57.349Z,15.68
2019-06-27T12:41:32.349Z,17.20
2019-06-27T12:44:04.081Z,14.07
2019-06-27T12:46:33.971Z,14.25
2019-06-27T12:49:03.815Z,12.93
2019-06-27T12:51:35.326Z,14.20
2019-06-27T12:54:08.372Z,15.00
2019-06-27T12:56:38.573Z,14.20
2019-06-27T12:59:18.066Z,14.90
2019-06-27T13:01:51.102Z,14.38
2019-06-27T13:04:23.842Z,14.35
2019-06-27T13:06:52.938Z,15.30
2019-06-27T13:09:26.761Z,14.18
2019-06-27T13:11:58.411Z,13.73
2019-06-27T13:14:29.577Z,12.50
2019-06-27T13:17:02.978Z,14.63
2019-06-27T13:19:33.652Z,14.90
2019-06-27T13:22:15.439Z,15.48
2019-06-27T13:24:50.884Z,15.25
2019-06-27T13:27:20.509Z,14.73
2019-06-27T13:29:52.274Z,14.55
2019-06-27T13:32:25.675Z,15.60
2019-06-27T13:34:55.635Z,15.28
2019-06-27T13:37:29.904Z,15.50
2019-06-27T13:39:57.594Z,15.35
2019-06-27T13:42:29.934Z,14.83
2019-06-27T13:44:59.430Z,14.50
2019-06-27T13:47:29.234Z,15.05
2019-06-27T13:49:58.739Z,15.88
2019-06-27T13:52:28.954Z,16.60
2019-06-27T13:55:01.681Z,16.62
2019-06-27T13:57:32.897Z,16.52
2019-06-27T14:00:02.841Z,15.63
2019-06-27T14:02:34.343Z,16.90
2019-06-27T14:05:04.154Z,15.60
2019-06-27T14:07:38.214Z,16.42
2019-06-27T14:10:10.708Z,15.60
2019-06-27T14:12:44.476Z,15.43
2019-06-27T14:15:13.255Z,16.15
2019-06-27T14:17:48.225Z,15.55
2019-06-27T14:20:19.154Z,16.67
2019-06-27T14:22:51.806Z,17.12
2019-06-27T14:25:21.495Z,17.50
2019-06-27T14:27:51.237Z,16.17
2019-06-27T14:30:21.267Z,18.27
2019-06-27T14:32:53.573Z,17.87
2019-06-27T14:35:23.782Z,17.37
2019-06-27T14:37:53.846Z,17.35
2019-06-27T14:40:25.575Z,16.60
2019-06-27T14:42:54.932Z,15.63
2019-06-27T14:45:25.686Z,16.02
2019-06-27T14:47:54.923Z,16.33
2019-06-27T14:50:24.557Z,15.28
2019-06-27T14:52:54.571Z,15.90
2019-06-27T14:55:36.362Z,16.30
2019-06-27T14:58:05.948Z,16.32
2019-06-27T15:00:35.636Z,15.60
2019-06-27T15:03:05.234Z,15.72
2019-06-27T15:05:35.776Z,15.73
2019-06-27T15:08:06.224Z,15.77
2019-06-27T15:10:36.404Z,15.00
2019-06-27T15:13:07.712Z,14.95
2019-06-27T15:15:37.873Z,15.20
2019-06-27T15:18:07.350Z,15.05
2019-06-27T15:20:37.122Z,14.28
2019-06-27T15:23:06.917Z,14.83
2019-06-27T15:25:36.927Z,15.68
2019-06-27T15:28:07.529Z,15.05
2019-06-27T15:30:37.330Z,16.73
2019-06-27T15:33:07.066Z,16.25
2019-06-27T15:35:50.876Z,15.63
2019-06-27T15:38:08.169Z,15.72
2019-06-27T15:40:38.678Z,15.20
2019-06-27T15:43:10.438Z,15.18
2019-06-27T15:45:42.008Z,15.70
2019-06-27T15:48:12.215Z,14.58
2019-06-27T15:50:43.592Z,14.45
2019-06-27T15:53:13.532Z,13.85
2019-06-27T15:55:43.260Z,15.58
2019-06-27T15:58:14.235Z,13.90
2019-06-27T16:00:43.931Z,14.28
2019-06-27T16:03:13.542Z,14.13
2019-06-27T16:05:42.787Z,13.70
2019-06-27T16:08:12.697Z,14.00
2019-06-27T16:10:41.906Z,13.43
2019-06-27T16:13:11.813Z,13.32
2019-06-27T16:15:41.830Z,13.33
2019-06-27T16:18:11.304Z,13.75
2019-06-27T16:20:40.989Z,14.00
2019-06-27T16:23:11.320Z,14.87
2019-06-27T16:25:41.720Z,12.63
2019-06-27T16:28:11.481Z,12.87
2019-06-27T16:30:43.382Z,12.90
2019-06-27T16:33:13.743Z,13.33
2019-06-27T16:35:43.317Z,12.98
2019-06-27T16:38:13.143Z,15.20
2019-06-27T16:40:42.683Z,13.70
2019-06-27T16:43:12.401Z,13.05
2019-06-27T16:45:42.011Z,13.03
2019-06-27T16:48:11.882Z,13.75
2019-06-27T16:50:41.654Z,14.35
2019-06-27T16:53:11.304Z,14.43
2019-06-27T16:55:43.026Z,13.72
2019-06-27T16:58:12.588Z,13.90
2019-06-27T17:00:42.328Z,13.93
2019-06-27T17:03:12.083Z,13.55
2019-06-27T17:05:41.937Z,13.50
2019-06-27T17:08:11.631Z,13.78
2019-06-27T17:10:42.647Z,13.20
2019-06-27T17:13:22.084Z,13.43
2019-06-27T17:15:53.163Z,13.95
2019-06-27T17:18:22.355Z,12.75
2019-06-27T17:20:52.365Z,13.10
2019-06-27T17:23:22.525Z,12.13
2019-06-27T17:25:52.505Z,11.78
2019-06-27T17:28:25.062Z,11.60
2019-06-27T17:30:57.084Z,11.95
2019-06-27T17:33:27.111Z,11.50
2019-06-27T17:35:56.885Z,11.73
2019-06-27T17:38:26.890Z,12.90
2019-06-27T17:40:56.616Z,12.13
2019-06-27T17:43:26.317Z,10.82
2019-06-27T17:45:56.413Z,11.55
2019-06-27T17:48:27.044Z,11.70
2019-06-27T17:50:57.064Z,12.47
2019-06-27T17:53:26.773Z,10.68
2019-06-27T17:55:56.695Z,10.72
2019-06-27T17:58:26.939Z,10.03
2019-06-27T18:00:57.012Z,10.25
2019-06-27T18:03:27.215Z,9.73
2019-06-27T18:05:56.918Z,9.75
2019-06-27T18:08:26.374Z,9.68
2019-06-27T18:11:01.115Z,9.33
2019-06-27T18:13:31.095Z,8.35
2019-06-27T18:16:01.369Z,7.80
2019-06-27T18:18:31.273Z,9.35
2019-06-27T18:21:03.639Z,11.65
2019-06-27T18:23:35.599Z,8.08
2019-06-27T18:26:05.662Z,6.87
2019-06-27T18:28:36.157Z,7.70
2019-06-27T18:31:06.103Z,5.80
2019-06-27T18:33:38.599Z,7.75
2019-06-27T18:36:08.160Z,6.25
2019-06-27T18:38:38.179Z,5.87
2019-06-27T18:41:12.728Z,5.08
2019-06-27T18:43:42.414Z,5.78
2019-06-27T18:46:13.095Z,5.40
2019-06-27T18:48:45.976Z,6.08
2019-06-27T18:51:16.167Z,4.95
2019-06-27T18:53:45.442Z,4.40
2019-06-27T18:56:15.105Z,5.15
2019-06-27T18:58:45.324Z,4.50
2019-06-27T19:01:15.365Z,5.12
2019-06-27T19:03:44.870Z,4.92
2019-06-27T19:06:14.482Z,5.22
2019-06-27T19:08:43.736Z,6.00
2019-06-27T19:11:13.076Z,4.13
2019-06-27T19:13:42.363Z,4.43
2019-06-27T19:16:12.571Z,4.55
2019-06-27T19:18:47.519Z,5.47
2019-06-27T19:21:22.795Z,5.10
2019-06-27T19:24:01.577Z,4.10
2019-06-27T19:26:31.415Z,3.95
2019-06-27T19:29:01.029Z,4.05
2019-06-27T19:31:32.976Z,3.92
2019-06-27T19:34:02.731Z,3.27
2019-06-27T19:36:32.244Z,3.55
2019-06-27T19:39:02.085Z,5.87
2019-06-27T19:41:31.936Z,3.77
2019-06-27T19:44:02.073Z,4.27
2019-06-27T19:46:32.068Z,4.70
2019-06-27T19:49:02.136Z,2.50
2019-06-27T19:51:31.926Z,2.80
2019-06-27T19:54:02.323Z,2.98
2019-06-27T19:56:32.120Z,3.08
2019-06-27T19:59:02.500Z,3.33
2019-06-27T20:01:31.976Z,2.65
2019-06-27T20:04:02.177Z,2.40
2019-06-27T20:06:32.282Z,2.60
2019-06-27T20:09:05.542Z,2.70
2019-06-27T20:11:35.250Z,2.50
2019-06-27T20:14:04.960Z,4.35
2019-06-27T20:16:34.431Z,3.15
2019-06-27T20:19:05.945Z,2.75
2019-06-27T20:21:35.522Z,2.50
2019-06-27T20:24:05.590Z,3.00
2019-06-27T20:26:36.233Z,2.52
2019-06-27T20:29:06.816Z,2.30
2019-06-27T20:31:36.154Z,2.25
2019-06-27T20:34:05.776Z,2.10
2019-06-27T20:36:35.037Z,2.55
2019-06-27T20:39:05.686Z,2.50
2019-06-27T20:41:35.543Z,2.52
2019-06-27T20:44:05.552Z,4.73
2019-06-27T20:46:35.032Z,2.62
2019-06-27T20:49:04.625Z,2.40
2019-06-27T20:51:38.298Z,2.33
2019-06-27T20:54:14.977Z,3.75
2019-06-27T20:56:48.018Z,2.70
2019-06-27T20:59:17.502Z,2.83
2019-06-27T21:01:47.165Z,4.25
2019-06-27T21:04:16.610Z,2.65
2019-06-27T21:06:45.838Z,3.40
2019-06-27T21:09:15.376Z,3.58
2019-06-27T21:11:46.004Z,3.15
2019-06-27T21:14:15.981Z,3.67
2019-06-27T21:16:45.368Z,3.17
2019-06-27T21:19:15.168Z,4.23
2019-06-27T21:21:44.775Z,4.22
2019-06-27T21:24:14.253Z,4.70
2019-06-27T21:26:44.053Z,3.77
2019-06-27T21:29:13.509Z,3.00
2019-06-27T21:31:43.348Z,2.67
2019-06-27T21:34:13.007Z,2.58
2019-06-27T21:36:43.652Z,2.60
2019-06-27T21:39:16.818Z,3.33
2019-06-27T21:41:46.748Z,2.92
2019-06-27T21:44:16.958Z,2.60
2019-06-27T21:46:46.505Z,2.15
2019-06-27T21:49:16.719Z,2.58
2019-06-27T21:51:48.734Z,3.00
2019-06-27T21:54:28.653Z,2.20
2019-06-27T21:56:59.243Z,1.95
2019-06-27T21:59:30.439Z,2.75
2019-06-27T22:02:11.611Z,2.67
2019-06-27T22:04:42.072Z,2.50
2019-06-27T22:07:13.650Z,2.20
2019-06-27T22:09:45.847Z,1.90
2019-06-27T22:12:17.476Z,2.27
2019-06-27T22:14:58.853Z,2.60
2019-06-27T22:17:36.012Z,2.60
2019-06-27T22:20:25.548Z,2.02
2019-06-27T22:22:59.977Z,1.95
2019-06-27T22:25:40.571Z,1.72
2019-06-27T22:28:05.406Z,1.80
2019-06-27T22:30:35.458Z,2.55
2019-06-27T22:33:05.300Z,1.60
2019-06-27T22:35:35.453Z,1.75
2019-06-27T22:38:22.840Z,1.80
2019-06-27T22:41:11.037Z,2.90
2019-06-27T22:43:58.017Z,2.03
2019-06-27T22:46:44.971Z,1.87
2019-06-27T22:49:15.317Z,2.08
2019-06-27T22:52:02.444Z,1.50
2019-06-27T22:54:33.345Z,1.85
2019-06-27T22:57:02.488Z,1.95
2019-06-27T22:59:31.744Z,1.90
2019-06-27T23:02:00.947Z,3.00
2019-06-27T23:04:30.491Z,1.80
2019-06-27T23:07:00.270Z,1.85
2019-06-27T23:09:29.601Z,1.82
2019-06-27T23:11:59.307Z,1.87
2019-06-27T23:14:28.506Z,1.98
2019-06-27T23:16:58.052Z,2.10
2019-06-27T23:19:27.338Z,2.60
2019-06-27T23:21:56.436Z,2.02
2019-06-27T23:24:26.238Z,2.12
2019-06-27T23:26:55.712Z,2.30
2019-06-27T23:29:25.147Z,2.30
2019-06-27T23:32:13.636Z,2.10
2019-06-27T23:34:43.281Z,1.87
2019-06-27T23:37:12.703Z,2.00
2019-06-27T23:39:42.154Z,1.90
2019-06-27T23:42:11.386Z,2.00
2019-06-27T23:44:41.102Z,3.50
2019-06-27T23:47:10.526Z,2.45
2019-06-27T23:49:39.639Z,2.00
2019-06-27T23:52:10.112Z,1.90
2019-06-27T23:54:39.823Z,2.42
2019-06-27T23:57:09.385Z,1.95
2019-06-27T23:59:38.907Z,2.20
